Time;durP1;ratioP1;P1;durP2;ratioP2;P2;SDS_P1;SDS_P2;PMS_P1;PMS_P2;Temp;Humidity;BMP_temperature;BMP_pressure;BME280_temperature;BME280_humidity;BME280_pressure;Samples;Min_cycle;Max_cycle;Signal;HPM_P1;HPM_P2
2022/07/22 00:04:46;;;;;;;9.52;5.90;;;25.00;82.20;;;;;;4886308;29;20041;-81
2022/07/22 00:07:13;;;;;;;13.50;6.30;;;24.80;83.30;;;;;;4905769;29;20054;-82
2022/07/22 00:09:41;;;;;;;12.23;6.03;;;25.00;82.60;;;;;;4883115;29;20067;-80
2022/07/22 00:12:09;;;;;;;10.75;5.70;;;24.90;83.40;;;;;;4915051;29;20048;-81
2022/07/22 00:14:36;;;;;;;11.15;5.32;;;24.80;83.50;;;;;;4886219;29;20044;-83
2022/07/22 00:17:04;;;;;;;9.48;5.32;;;24.80;81.90;;;;;;4903847;29;20050;-84
2022/07/22 00:19:31;;;;;;;11.32;5.38;;;25.00;80.30;;;;;;4923295;29;20043;-82
2022/07/22 00:21:58;;;;;;;14.52;5.70;;;25.20;80.30;;;;;;4920975;29;20068;-81
2022/07/22 00:24:26;;;;;;;13.57;5.32;;;25.20;80.10;;;;;;4917312;29;20395;-82
2022/07/22 00:26:53;;;;;;;10.20;5.10;;;25.10;80.20;;;;;;4920745;29;20118;-84
2022/07/22 00:29:20;;;;;;;11.38;5.47;;;24.80;80.80;;;;;;4902100;29;20415;-82
2022/07/22 00:31:50;;;;;;;10.32;6.13;;;24.80;82.50;;;;;;4920527;29;20087;-81
2022/07/22 00:34:19;;;;;;;11.88;6.43;;;24.60;82.40;;;;;;4905163;29;20051;-81
2022/07/22 00:36:46;;;;;;;12.20;5.30;;;24.60;82.60;;;;;;4936870;29;20043;-81
2022/07/22 00:39:15;;;;;;;8.30;5.28;;;24.50;82.90;;;;;;4904698;29;20079;-81
2022/07/22 00:41:42;;;;;;;8.80;5.20;;;24.60;84.80;;;;;;4937307;29;20127;-82
2022/07/22 00:44:11;;;;;;;14.35;5.57;;;24.70;82.70;;;;;;4895933;29;20524;-81
2022/07/22 00:46:39;;;;;;;13.60;6.65;;;24.60;83.20;;;;;;4918004;29;20055;-82
2022/07/22 00:49:08;;;;;;;13.43;5.30;;;24.50;83.70;;;;;;4920015;29;20040;-81
2022/07/22 00:51:39;;;;;;;10.13;4.95;;;24.60;83.70;;;;;;4885725;29;20484;-82
2022/07/22 00:54:07;;;;;;;13.68;5.32;;;24.60;85.40;;;;;;4901312;29;20377;-82
2022/07/22 00:56:36;;;;;;;8.73;5.30;;;24.50;85.20;;;;;;4911441;29;20060;-80
2022/07/22 00:59:06;;;;;;;14.05;5.45;;;24.50;85.50;;;;;;4901184;29;20404;-81
2022/07/22 01:01:33;;;;;;;10.50;5.47;;;24.40;86.40;;;;;;4920110;29;20221;-79
2022/07/22 01:04:02;;;;;;;10.25;5.72;;;24.30;85.70;;;;;;4894078;29;20484;-80
2022/07/22 01:06:30;;;;;;;13.80;6.13;;;24.50;85.00;;;;;;4908045;29;20052;-81
2022/07/22 01:08:58;;;;;;;11.32;5.55;;;24.50;84.90;;;;;;4910698;29;20039;-81
2022/07/22 01:11:27;;;;;;;16.92;5.78;;;24.50;86.20;;;;;;4927342;29;20048;-82
2022/07/22 01:13:56;;;;;;;15.43;5.63;;;24.20;88.00;;;;;;4908949;29;20113;-82
2022/07/22 01:16:24;;;;;;;10.68;5.18;;;24.10;88.70;;;;;;4909129;29;20122;-80
2022/07/22 01:18:52;;;;;;;14.20;5.53;;;24.20;87.60;;;;;;4901178;29;20044;-82
2022/07/22 01:21:21;;;;;;;16.50;5.63;;;24.10;88.90;;;;;;4885258;29;20058;-84
2022/07/22 01:23:48;;;;;;;11.27;5.82;;;24.10;88.30;;;;;;4900585;29;20074;-82
2022/07/22 01:26:17;;;;;;;12.35;6.15;;;24.20;88.20;;;;;;4884623;29;20058;-82
2022/07/22 01:28:44;;;;;;;14.68;5.45;;;24.20;87.60;;;;;;4900647;29;20403;-80
2022/07/22 01:31:12;;;;;;;12.52;5.97;;;24.00;88.10;;;;;;4900466;29;20058;-83
2022/07/22 01:33:40;;;;;;;11.30;5.72;;;23.90;89.00;;;;;;4917636;29;20048;-81
2022/07/22 01:36:08;;;;;;;9.45;5.78;;;23.90;89.80;;;;;;4884692;29;20139;-83
2022/07/22 01:38:36;;;;;;;9.25;5.63;;;24.00;87.40;;;;;;4885148;29;20143;-82
2022/07/22 01:41:04;;;;;;;9.75;5.00;;;24.10;87.20;;;;;;4900417;29;20090;-82
2022/07/22 01:43:32;;;;;;;11.68;5.50;;;24.10;86.80;;;;;;4900509;29;20072;-82
2022/07/22 01:45:59;;;;;;;11.93;5.05;;;24.30;87.60;;;;;;4884433;29;20066;-81
2022/07/22 01:48:27;;;;;;;9.65;5.28;;;24.30;87.10;;;;;;4900456;29;20056;-81
2022/07/22 01:50:54;;;;;;;19.80;5.63;;;24.00;88.20;;;;;;4899825;29;20047;-80
2022/07/22 01:53:22;;;;;;;14.65;5.30;;;23.70;90.40;;;;;;4900350;29;20040;-81
2022/07/22 01:55:49;;;;;;;16.15;5.07;;;23.80;90.50;;;;;;4919614;29;20039;-81
2022/07/22 01:58:17;;;;;;;10.75;5.50;;;23.90;90.70;;;;;;4954912;29;20054;-82
2022/07/22 02:00:44;;;;;;;12.70;5.40;;;23.80;90.50;;;;;;4954705;29;20126;-82
2022/07/22 02:03:12;;;;;;;10.70;5.00;;;23.70;90.80;;;;;;4955104;29;20051;-82
2022/07/22 02:05:40;;;;;;;9.68;5.10;;;23.50;91.20;;;;;;4954559;29;20043;-81
2022/07/22 02:08:10;;;;;;;658.80;609.63;;;23.70;90.90;;;;;;4954720;29;20419;-80
2022/07/22 02:10:38;;;;;;;10.40;5.03;;;23.70;91.10;;;;;;4955200;29;20043;-82
2022/07/22 02:13:08;;;;;;;14.90;6.20;;;23.50;91.70;;;;;;4955087;29;20134;-82
2022/07/22 02:15:37;;;;;;;8.57;5.50;;;23.50;92.10;;;;;;4937682;29;20501;-83
2022/07/22 02:18:16;;;;;;;13.07;5.35;;;23.50;92.00;;;;;;4937757;29;20057;-83
2022/07/22 02:20:44;;;;;;;11.00;5.13;;;23.50;92.00;;;;;;4937778;29;20131;-83
2022/07/22 02:23:12;;;;;;;11.18;5.70;;;23.70;91.40;;;;;;4954766;29;20043;-81
2022/07/22 02:25:40;;;;;;;7.40;5.13;;;23.50;91.30;;;;;;4937306;29;20122;-81
2022/07/22 02:28:08;;;;;;;9.90;5.10;;;23.60;92.40;;;;;;4954446;29;20050;-83
2022/07/22 02:30:35;;;;;;;9.32;5.35;;;23.60;92.20;;;;;;4954341;29;20436;-82
2022/07/22 02:33:03;;;;;;;16.77;5.60;;;23.80;91.80;;;;;;4921714;29;20078;-81
2022/07/22 02:35:30;;;;;;;7.30;4.93;;;23.70;91.90;;;;;;4937455;29;20130;-81
2022/07/22 02:37:58;;;;;;;10.23;6.00;;;23.50;93.10;;;;;;4937049;29;20094;-82
2022/07/22 02:40:28;;;;;;;8.65;5.35;;;23.50;92.70;;;;;;4938039;29;20516;-82
2022/07/22 02:42:56;;;;;;;14.18;5.80;;;23.40;93.30;;;;;;4921690;29;20043;-82
2022/07/22 02:45:23;;;;;;;9.00;5.40;;;23.50;92.50;;;;;;4937114;29;20066;-82
2022/07/22 02:47:55;;;;;;;10.07;6.18;;;23.40;93.00;;;;;;4921710;29;20059;-81
2022/07/22 02:50:23;;;;;;;9.48;5.53;;;23.40;92.90;;;;;;4954054;29;20062;-81
2022/07/22 02:52:51;;;;;;;12.13;5.70;;;23.30;93.00;;;;;;4937202;29;20093;-80
2022/07/22 02:55:18;;;;;;;10.65;5.15;;;23.30;93.80;;;;;;4917375;29;20051;-82
2022/07/22 02:57:46;;;;;;;8.07;5.18;;;23.30;93.90;;;;;;4934804;29;20055;-81
2022/07/22 03:00:14;;;;;;;10.70;5.38;;;23.30;94.20;;;;;;4934709;29;20039;-84
2022/07/22 03:02:42;;;;;;;13.07;5.88;;;23.10;94.70;;;;;;4935176;29;20526;-83
2022/07/22 03:05:10;;;;;;;13.55;5.38;;;23.10;95.60;;;;;;4917902;29;20067;-85
2022/07/22 03:08:02;;;;;;;8.02;4.78;;;23.20;96.00;;;;;;4918019;29;20135;-83
2022/07/22 03:10:33;;;;;;;10.95;4.88;;;23.00;96.90;;;;;;4917563;29;20036;-84
2022/07/22 03:13:01;;;;;;;8.90;5.35;;;23.00;95.80;;;;;;4918122;29;20047;-83
2022/07/22 03:15:29;;;;;;;10.05;5.20;;;23.10;96.10;;;;;;4934716;29;20369;-83
2022/07/22 03:17:56;;;;;;;9.48;4.90;;;23.00;95.80;;;;;;4917882;29;20043;-79
2022/07/22 03:20:23;;;;;;;13.38;5.88;;;23.10;95.10;;;;;;4933948;29;20118;-82
2022/07/22 03:22:51;;;;;;;13.32;5.05;;;23.20;95.80;;;;;;4917888;29;20127;-81
2022/07/22 03:25:26;;;;;;;12.60;5.57;;;23.20;95.20;;;;;;4917721;29;20387;-82
2022/07/22 03:27:53;;;;;;;9.18;4.97;;;23.20;94.50;;;;;;4917702;29;20039;-82
2022/07/22 03:30:21;;;;;;;13.20;5.55;;;23.20;95.10;;;;;;4917486;29;20055;-83
2022/07/22 03:32:48;;;;;;;9.32;5.00;;;23.30;94.50;;;;;;4917855;29;20082;-82
2022/07/22 03:35:17;;;;;;;13.63;5.22;;;23.10;94.10;;;;;;4917660;29;20040;-81
2022/07/22 03:37:45;;;;;;;12.80;5.90;;;22.80;96.30;;;;;;4917529;29;20047;-83
2022/07/22 03:40:12;;;;;;;13.18;5.20;;;22.90;96.50;;;;;;4934831;29;20127;-81
2022/07/22 03:42:41;;;;;;;10.05;5.03;;;22.70;96.50;;;;;;4917481;29;20051;-83
2022/07/22 03:45:12;;;;;;;12.82;5.03;;;22.60;96.80;;;;;;4917329;29;20059;-82
2022/07/22 03:47:40;;;;;;;11.45;5.28;;;22.40;97.60;;;;;;4917980;29;20051;-83
2022/07/22 03:50:08;;;;;;;11.52;4.70;;;22.50;98.20;;;;;;4921453;29;20044;-83
2022/07/22 03:52:35;;;;;;;9.52;4.80;;;22.50;98.20;;;;;;4921306;29;20107;-82
2022/07/22 03:55:04;;;;;;;11.95;5.20;;;22.70;98.20;;;;;;4938481;29;20095;-81
2022/07/22 03:57:31;;;;;;;10.10;5.35;;;22.70;97.60;;;;;;4957241;29;20419;-82
2022/07/22 03:59:58;;;;;;;12.13;5.32;;;22.90;98.30;;;;;;4957262;29;20047;-81
2022/07/22 04:02:26;;;;;;;8.40;5.07;;;22.70;97.40;;;;;;4956831;29;20432;-83
2022/07/22 04:04:53;;;;;;;10.63;5.57;;;22.70;98.00;;;;;;4957191;29;20047;-83
2022/07/22 04:07:21;;;;;;;11.32;5.15;;;22.80;98.40;;;;;;4957307;29;20077;-84
2022/07/22 04:09:48;;;;;;;14.63;5.18;;;22.70;98.30;;;;;;4939698;29;20401;-82
2022/07/22 04:12:15;;;;;;;11.20;5.30;;;22.70;98.10;;;;;;4939980;29;20050;-84
2022/07/22 04:14:42;;;;;;;12.75;5.72;;;22.70;98.10;;;;;;4940397;29;20043;-84
2022/07/22 04:17:10;;;;;;;13.25;5.82;;;22.70;99.20;;;;;;4939898;29;20138;-83
2022/07/22 04:19:42;;;;;;;14.65;5.38;;;22.80;98.60;;;;;;4956757;29;20044;-81
2022/07/22 04:22:09;;;;;;;9.43;4.88;;;22.80;98.30;;;;;;4939875;29;20053;-84
2022/07/22 04:24:36;;;;;;;11.05;4.85;;;22.90;97.20;;;;;;4956683;28;20067;-81
2022/07/22 04:27:04;;;;;;;7.53;4.60;;;22.90;95.80;;;;;;4924168;29;20054;-83
2022/07/22 04:29:31;;;;;;;10.38;5.05;;;22.90;95.30;;;;;;4956798;29;20126;-82
2022/07/22 04:31:58;;;;;;;6.85;4.47;;;23.00;94.70;;;;;;4923971;29;20131;-83
2022/07/22 04:34:36;;;;;;;10.45;4.70;;;22.90;94.50;;;;;;4939750;29;20057;-81
2022/07/22 04:37:03;;;;;;;8.55;4.80;;;23.00;94.20;;;;;;4939265;29;20078;-81
2022/07/22 04:39:31;;;;;;;9.77;4.82;;;22.90;94.00;;;;;;4924132;29;20126;-81
2022/07/22 04:41:58;;;;;;;11.73;4.90;;;23.00;93.70;;;;;;4956406;29;20051;-81
2022/07/22 04:44:25;;;;;;;9.35;4.38;;;23.00;94.20;;;;;;4939366;29;20127;-82
2022/07/22 04:46:53;;;;;;;12.40;4.55;;;23.10;94.30;;;;;;4939376;29;20730;-81
2022/07/22 04:49:20;;;;;;;8.93;4.70;;;23.20;93.60;;;;;;4939295;29;20114;-80
2022/07/22 04:51:47;;;;;;;7.25;4.45;;;23.30;93.10;;;;;;4923122;29;20138;-81
2022/07/22 04:54:16;;;;;;;9.90;5.03;;;23.30;93.40;;;;;;4939213;29;20625;-80
2022/07/22 04:56:45;;;;;;;9.27;4.43;;;23.20;93.70;;;;;;4943901;29;20058;-81
2022/07/22 04:59:12;;;;;;;9.35;4.93;;;23.10;95.00;;;;;;4904169;29;20456;-82
2022/07/22 05:01:39;;;;;;;43.10;37.28;;;23.20;95.00;;;;;;4919825;29;20131;-82
2022/07/22 05:04:07;;;;;;;11.93;5.18;;;23.10;94.70;;;;;;4936979;29;20055;-81
2022/07/22 05:06:35;;;;;;;11.38;4.82;;;23.30;94.30;;;;;;4904122;29;20047;-82
2022/07/22 05:09:04;;;;;;;12.18;5.20;;;23.50;95.30;;;;;;4936519;29;20043;-81
2022/07/22 05:11:31;;;;;;;10.77;5.00;;;23.30;94.40;;;;;;4919840;29;20043;-81
2022/07/22 05:13:59;;;;;;;13.90;4.95;;;23.50;93.60;;;;;;4919983;29;20051;-81
2022/07/22 05:16:26;;;;;;;8.55;4.78;;;23.60;93.20;;;;;;4919963;29;20102;-82
2022/07/22 05:18:54;;;;;;;12.02;4.85;;;23.40;94.20;;;;;;4919473;29;20453;-81
2022/07/22 05:21:21;;;;;;;8.48;4.60;;;23.40;94.10;;;;;;4936457;29;20055;-82
2022/07/22 05:23:49;;;;;;;9.20;4.93;;;23.40;94.10;;;;;;4936986;29;20135;-83
2022/07/22 05:26:16;;;;;;;9.05;4.43;;;23.60;93.60;;;;;;4936612;29;20119;-81
2022/07/22 05:28:44;;;;;;;12.32;6.00;;;23.60;92.80;;;;;;4919519;29;20134;-82
2022/07/22 05:31:11;;;;;;;11.05;5.38;;;23.70;92.30;;;;;;4903965;29;20095;-82
2022/07/22 05:33:38;;;;;;;9.13;5.00;;;23.70;92.70;;;;;;4919436;29;20546;-81
2022/07/22 05:36:07;;;;;;;10.18;5.47;;;23.80;92.40;;;;;;4935940;29;20074;-81
2022/07/22 05:38:35;;;;;;;10.77;5.05;;;23.80;92.00;;;;;;4919230;29;20142;-82
2022/07/22 05:41:02;;;;;;;11.35;5.53;;;24.00;92.00;;;;;;4936361;29;20115;-82
2022/07/22 05:43:30;;;;;;;8.82;5.30;;;24.00;92.40;;;;;;4919076;29;20086;-82
2022/07/22 05:45:57;;;;;;;7.65;4.82;;;24.10;92.10;;;;;;4918652;29;20123;-82
2022/07/22 05:48:25;;;;;;;14.05;5.22;;;24.10;92.50;;;;;;4919332;29;20102;-82
2022/07/22 05:50:52;;;;;;;78.13;50.42;;;24.00;92.70;;;;;;4903257;29;20417;-81
2022/07/22 05:53:19;;;;;;;87.85;58.50;;;23.90;93.10;;;;;;4919293;29;20051;-80
2022/07/22 05:55:47;;;;;;;90.97;61.65;;;24.10;92.60;;;;;;4921430;29;20107;-81
2022/07/22 05:58:14;;;;;;;160.90;102.07;;;24.10;91.90;;;;;;4921935;29;20055;-79
2022/07/22 06:00:42;;;;;;;89.25;58.20;;;24.20;91.50;;;;;;4955037;29;20040;-83
2022/07/22 06:03:12;;;;;;;157.35;104.35;;;24.40;91.50;;;;;;4922566;29;20089;-81
2022/07/22 06:05:44;;;;;;;37.78;27.02;;;24.50;91.30;;;;;;4954912;29;20143;-82
2022/07/22 06:08:12;;;;;;;38.25;24.92;;;24.40;91.20;;;;;;4935516;29;20113;-81
2022/07/22 06:10:40;;;;;;;22.30;11.00;;;24.50;91.50;;;;;;4909662;29;20047;-80
2022/07/22 06:13:07;;;;;;;14.32;9.07;;;24.60;91.30;;;;;;4918016;29;20127;-79
2022/07/22 06:15:35;;;;;;;12.23;8.35;;;24.50;91.90;;;;;;4910711;29;20118;-80
2022/07/22 06:18:02;;;;;;;69.78;47.40;;;24.50;91.90;;;;;;4917718;29;20056;-79
2022/07/22 06:20:29;;;;;;;76.18;49.08;;;24.50;91.60;;;;;;4935148;29;20054;-80
2022/07/22 06:22:57;;;;;;;20.70;14.00;;;24.50;91.30;;;;;;4935486;29;20422;-81
2022/07/22 06:25:24;;;;;;;12.75;8.52;;;24.40;90.50;;;;;;4900368;29;20048;-81
2022/07/22 06:28:10;;;;;;;15.98;9.10;;;24.30;90.40;;;;;;4916243;29;20051;-81
2022/07/22 06:30:38;;;;;;;17.08;8.98;;;24.40;91.20;;;;;;4899400;29;20052;-81
2022/07/22 06:33:07;;;;;;;168.20;152.98;;;24.50;91.00;;;;;;4916228;29;20048;-82
2022/07/22 06:35:35;;;;;;;16.50;7.57;;;24.40;91.30;;;;;;4899250;29;20451;-81
2022/07/22 06:38:02;;;;;;;11.63;7.00;;;24.50;90.60;;;;;;4915963;29;20048;-80
2022/07/22 06:40:33;;;;;;;11.45;7.05;;;24.70;90.60;;;;;;4899297;29;20075;-79
2022/07/22 06:43:01;;;;;;;17.52;7.63;;;24.80;90.80;;;;;;4899564;29;20044;-81
2022/07/22 06:45:29;;;;;;;13.80;7.13;;;24.90;90.80;;;;;;4915668;29;20239;-79
2022/07/22 06:47:57;;;;;;;14.35;7.00;;;25.00;90.20;;;;;;4899439;29;20138;-81
2022/07/22 06:50:25;;;;;;;10.90;6.45;;;25.10;89.50;;;;;;4898757;29;20048;-79
2022/07/22 06:52:53;;;;;;;17.13;6.25;;;25.10;90.10;;;;;;4898745;29;20055;-80
2022/07/22 06:55:21;;;;;;;16.33;6.43;;;25.10;90.20;;;;;;4916084;29;20052;-80
2022/07/22 06:57:48;;;;;;;61.22;40.58;;;25.10;90.30;;;;;;4932220;29;20071;-79
2022/07/22 07:00:17;;;;;;;84.63;58.67;;;25.30;90.30;;;;;;4936450;29;20043;-80
2022/07/22 07:02:45;;;;;;;98.55;67.70;;;25.20;90.10;;;;;;4937256;29;20047;-80
2022/07/22 07:05:13;;;;;;;40.70;29.73;;;25.20;90.00;;;;;;4909664;29;20047;-81
2022/07/22 07:07:47;;;;;;;42.15;29.63;;;25.30;90.40;;;;;;4917817;29;20047;-81
2022/07/22 07:10:15;;;;;;;26.27;17.90;;;25.30;90.20;;;;;;4917348;29;20481;-80
2022/07/22 07:12:43;;;;;;;20.90;10.32;;;25.30;90.40;;;;;;4915808;29;20044;-81
2022/07/22 07:15:11;;;;;;;15.93;7.65;;;25.30;89.40;;;;;;4898112;29;20119;-81
2022/07/22 07:17:56;;;;;;;15.50;8.27;;;25.30;89.40;;;;;;4915310;29;20044;-81
2022/07/22 07:20:24;;;;;;;16.23;10.35;;;25.50;89.90;;;;;;4898404;29;20048;-79
2022/07/22 07:22:52;;;;;;;16.08;7.75;;;25.70;88.90;;;;;;4898006;29;20060;-80
2022/07/22 07:25:20;;;;;;;14.88;7.53;;;25.70;89.00;;;;;;4898438;29;20134;-80
2022/07/22 07:27:57;;;;;;;16.98;7.20;;;25.80;89.90;;;;;;4898909;29;20046;-81
2022/07/22 07:30:26;;;;;;;14.68;6.50;;;25.70;88.50;;;;;;4898583;29;20122;-81
2022/07/22 07:32:53;;;;;;;14.90;5.90;;;25.80;89.40;;;;;;4898333;29;20048;-81
2022/07/22 07:35:21;;;;;;;17.00;9.43;;;25.90;89.50;;;;;;4915193;29;20445;-80
2022/07/22 07:37:55;;;;;;;18.55;7.35;;;26.00;88.40;;;;;;4914893;29;20155;-80
2022/07/22 07:40:25;;;;;;;21.10;6.30;;;25.90;87.80;;;;;;4898161;29;20079;-79
2022/07/22 07:42:53;;;;;;;25.77;7.38;;;26.00;88.00;;;;;;4915559;29;20123;-80
2022/07/22 07:45:48;;;;;;;13.30;5.97;;;26.20;88.30;;;;;;4897455;29;20085;-81
2022/07/22 07:48:15;;;;;;;17.50;7.55;;;26.40;88.20;;;;;;4883562;29;20052;-83
2022/07/22 07:50:45;;;;;;;15.73;6.10;;;26.40;87.40;;;;;;4898298;29;20059;-81
2022/07/22 07:53:14;;;;;;;15.82;6.78;;;26.40;88.00;;;;;;4883169;29;20119;-81
2022/07/22 07:55:45;;;;;;;19.27;6.65;;;26.60;88.50;;;;;;4875928;29;20077;-81
2022/07/22 07:58:13;;;;;;;10.27;6.60;;;26.80;88.70;;;;;;4918839;29;20570;-81
2022/07/22 08:00:59;;;;;;;20.70;7.55;;;26.90;88.40;;;;;;4939083;29;20126;-80
2022/07/22 08:03:27;;;;;;;15.07;6.90;;;26.90;86.30;;;;;;4920773;29;20389;-80
2022/07/22 08:05:55;;;;;;;17.35;6.38;;;27.00;86.00;;;;;;4936020;29;20043;-80
2022/07/22 08:08:22;;;;;;;11.68;6.10;;;27.10;85.70;;;;;;4934192;29;20115;-80
2022/07/22 08:10:50;;;;;;;11.82;5.80;;;27.10;84.60;;;;;;4916842;29;20095;-79
2022/07/22 08:13:27;;;;;;;29.90;16.48;;;27.20;84.00;;;;;;4918761;29;20052;-79
2022/07/22 08:15:55;;;;;;;33.97;23.50;;;27.30;84.90;;;;;;4916870;29;20039;-80
2022/07/22 08:18:25;;;;;;;36.05;23.63;;;27.40;84.50;;;;;;4934430;29;20075;-80
2022/07/22 08:20:52;;;;;;;17.85;10.02;;;27.40;83.20;;;;;;4933995;29;20123;-80
2022/07/22 08:23:19;;;;;;;13.88;6.68;;;27.50;84.00;;;;;;4914910;29;20518;-80
2022/07/22 08:25:47;;;;;;;12.05;6.28;;;27.60;82.60;;;;;;4897954;29;20040;-80
2022/07/22 08:28:14;;;;;;;13.23;6.40;;;27.70;82.60;;;;;;4898304;29;20134;-80
2022/07/22 08:30:42;;;;;;;11.80;6.30;;;27.80;82.90;;;;;;4882222;29;20040;-80
2022/07/22 08:33:09;;;;;;;17.65;5.70;;;27.80;80.40;;;;;;4882676;29;20571;-80
2022/07/22 08:35:37;;;;;;;13.88;5.68;;;27.80;79.90;;;;;;4901268;29;20143;-81
2022/07/22 08:38:04;;;;;;;12.10;5.18;;;27.90;81.10;;;;;;4901644;29;20460;-80
2022/07/22 08:40:32;;;;;;;14.00;5.75;;;28.10;81.20;;;;;;4916947;29;20044;-81
2022/07/22 08:43:02;;;;;;;14.02;6.20;;;28.20;80.40;;;;;;4886662;29;20143;-80
2022/07/22 08:45:31;;;;;;;11.93;5.82;;;28.30;80.70;;;;;;4917939;29;20528;-81
2022/07/22 08:48:02;;;;;;;16.30;6.28;;;28.50;79.00;;;;;;4886468;29;20048;-81
2022/07/22 08:50:34;;;;;;;12.95;5.97;;;28.60;78.40;;;;;;4917945;29;20046;-80
2022/07/22 08:53:02;;;;;;;16.35;6.88;;;28.60;78.40;;;;;;4918211;29;20068;-80
2022/07/22 08:55:30;;;;;;;12.75;5.65;;;28.70;79.80;;;;;;4901064;29;20420;-84
2022/07/22 08:57:57;;;;;;;28.08;22.70;;;28.80;78.60;;;;;;4929833;29;20130;-82
2022/07/22 09:00:24;;;;;;;60.85;40.42;;;28.70;78.40;;;;;;4923217;29;20078;-82
2022/07/22 09:02:52;;;;;;;36.25;23.92;;;28.70;78.50;;;;;;4938962;29;20376;-79
2022/07/22 09:05:19;;;;;;;19.90;7.20;;;28.80;78.70;;;;;;4939016;29;20098;-80
2022/07/22 09:08:07;;;;;;;13.30;6.03;;;28.90;77.00;;;;;;4938555;29;20047;-78
2022/07/22 09:10:36;;;;;;;21.33;6.68;;;29.10;77.70;;;;;;4885676;29;20500;-80
2022/07/22 09:13:05;;;;;;;16.77;7.50;;;29.60;77.30;;;;;;4917911;29;20130;-79
2022/07/22 09:15:37;;;;;;;11.52;5.65;;;29.80;76.10;;;;;;4917411;29;20433;-80
2022/07/22 09:18:06;;;;;;;15.30;6.03;;;30.00;75.80;;;;;;4917102;29;20127;-80
2022/07/22 09:20:36;;;;;;;12.10;5.97;;;30.30;74.90;;;;;;4900788;29;20455;-80
2022/07/22 09:23:29;;;;;;;;;;;30.30;75.20;;;;;;4917970;29;20138;-81
2022/07/22 09:25:57;;;;;;;13.30;5.53;;;30.40;74.50;;;;;;4913116;29;20004;-80
2022/07/22 09:28:24;;;;;;;11.35;6.00;;;30.60;72.30;;;;;;4900663;29;20048;-80
2022/07/22 09:30:55;;;;;;;11.25;5.85;;;30.60;72.70;;;;;;4916050;29;20055;-80
2022/07/22 09:33:25;;;;;;;11.18;5.05;;;30.60;71.10;;;;;;4900525;29;20062;-80
2022/07/22 09:36:05;;;;;;;11.68;5.82;;;30.70;70.40;;;;;;4900535;29;20071;-80
2022/07/22 09:38:34;;;;;;;;;;;30.60;71.80;;;;;;4904028;29;20494;-79
2022/07/22 09:41:04;;;;;;;10.20;4.97;;;30.90;70.20;;;;;;4903653;29;19922;-79
2022/07/22 09:43:35;;;;;;;15.98;5.32;;;31.20;68.50;;;;;;4919149;29;20048;-81
2022/07/22 09:46:04;;;;;;;9.75;5.18;;;31.30;67.30;;;;;;4918061;29;20054;-81
2022/07/22 09:48:32;;;;;;;12.07;7.30;;;31.30;65.70;;;;;;4918960;29;20127;-80
2022/07/22 09:50:59;;;;;;;11.45;5.93;;;31.50;65.00;;;;;;4919277;29;20051;-80
2022/07/22 09:53:28;;;;;;;7.15;4.10;;;31.80;65.20;;;;;;4916549;29;20883;-80
2022/07/22 09:56:06;;;;;;;12.13;4.63;;;31.90;64.90;;;;;;4900153;29;20040;-79
2022/07/22 09:58:34;;;;;;;10.05;4.57;;;31.80;65.10;;;;;;4951665;29;20043;-80
2022/07/22 10:01:06;;;;;;;11.32;4.53;;;32.10;64.90;;;;;;4954899;29;20090;-81
2022/07/22 10:03:36;;;;;;;14.90;5.07;;;32.10;63.10;;;;;;4938368;29;20443;-79
2022/07/22 10:06:05;;;;;;;8.63;4.60;;;32.10;64.10;;;;;;4937645;29;20415;-81
2022/07/22 10:08:33;;;;;;;10.80;5.03;;;32.40;63.10;;;;;;4950197;29;20047;-81
2022/07/22 10:11:04;;;;;;;10.27;4.38;;;32.50;62.80;;;;;;4903288;29;20059;-81
2022/07/22 10:13:34;;;;;;;10.75;5.15;;;32.70;62.30;;;;;;4902887;29;20154;-81
2022/07/22 10:16:02;;;;;;;14.02;5.40;;;32.80;63.50;;;;;;4903027;29;20142;-82
2022/07/22 10:18:31;;;;;;;6.97;4.13;;;33.00;63.30;;;;;;4935695;29;20400;-82
2022/07/22 10:21:11;;;;;;;7.78;4.10;;;33.00;60.00;;;;;;4918675;29;20050;-88
2022/07/22 10:24:11;;;;;;;13.80;5.75;;;33.00;60.10;;;;;;4936319;29;20389;-87
2022/07/22 10:26:53;;;;;;;13.50;6.22;;;33.00;58.30;;;;;;4918779;29;20132;-84
2022/07/22 10:29:47;;;;;;;7.95;4.40;;;32.80;59.30;;;;;;4919311;29;20051;-83
2022/07/22 10:32:17;;;;;;;6.00;4.15;;;33.00;58.00;;;;;;4903493;29;20043;-87
2022/07/22 10:35:10;;;;;;;10.80;4.30;;;33.10;58.20;;;;;;4918677;29;20415;-83
2022/07/22 10:37:43;;;;;;;9.25;4.63;;;33.30;58.70;;;;;;4903017;29;20051;-85
2022/07/22 10:40:15;;;;;;;6.35;4.22;;;33.40;58.00;;;;;;4902607;29;20052;-88
2022/07/22 10:43:00;;;;;;;14.77;4.40;;;33.50;59.50;;;;;;4883973;29;20138;-81
2022/07/22 10:45:51;;;;;;;8.88;4.50;;;33.60;56.70;;;;;;4899173;29;20527;-87
2022/07/22 10:48:45;;;;;;;12.48;4.97;;;33.50;58.60;;;;;;4937466;23;20150;-88
2022/07/22 10:51:21;;;;;;;9.13;4.43;;;33.60;58.30;;;;;;4919395;29;20043;-89
2022/07/22 10:54:02;;;;;;;6.60;3.55;;;33.60;56.40;;;;;;4910580;29;20043;-87
2022/07/22 10:56:48;;;;;;;10.15;3.83;;;33.50;55.20;;;;;;4940391;23;20047;-85
2022/07/22 10:59:19;;;;;;;9.10;4.93;;;33.60;56.60;;;;;;4927978;28;20059;-86
2022/07/22 11:02:02;;;;;;;9.63;4.57;;;33.60;56.90;;;;;;4928565;29;20094;-87
2022/07/22 11:04:30;;;;;;;8.93;3.38;;;33.70;57.60;;;;;;4944773;28;20039;-88
2022/07/22 11:06:57;;;;;;;8.98;3.70;;;33.90;56.10;;;;;;4967897;28;20045;-87
2022/07/22 11:09:34;;;;;;;10.20;4.65;;;33.90;55.10;;;;;;4964731;28;20046;-86
2022/07/22 11:12:02;;;;;;;11.15;3.90;;;33.80;55.80;;;;;;4922734;29;20066;-86
2022/07/22 11:14:43;;;;;;;;;;;;;;;;;;;;;
2022/07/22 11:17:23;;;;;;;9.00;3.88;;;34.00;55.80;;;;;;4955145;29;20039;-84
2022/07/22 11:19:51;;;;;;;16.58;4.68;;;34.20;56.90;;;;;;4922897;29;20047;-87
2022/07/22 11:22:18;;;;;;;23.52;14.25;;;34.10;56.70;;;;;;4955263;29;20063;-85
2022/07/22 11:24:49;;;;;;;34.72;21.35;;;34.20;57.20;;;;;;4932933;28;20078;-85
2022/07/22 11:27:18;;;;;;;27.75;14.63;;;34.20;57.70;;;;;;4956250;28;20047;-84
2022/07/22 11:29:57;;;;;;;14.07;7.10;;;34.20;56.70;;;;;;4955734;28;20126;-85
2022/07/22 11:32:30;;;;;;;11.85;5.05;;;34.20;56.40;;;;;;4956300;28;20105;-85
2022/07/22 11:34:59;;;;;;;8.63;4.50;;;34.40;56.90;;;;;;4955727;28;20050;-83
2022/07/22 11:37:27;;;;;;;8.00;4.60;;;34.60;56.30;;;;;;4972214;28;20042;-83
2022/07/22 11:40:04;;;;;;;13.05;4.20;;;34.80;56.70;;;;;;4970634;28;20142;-83
2022/07/22 11:43:01;;;;;;;9.75;4.65;;;34.80;57.50;;;;;;4971371;28;20054;-82
2022/07/22 11:45:34;;;;;;;15.32;5.82;;;34.50;55.80;;;;;;4953046;28;20050;-83
2022/07/22 11:48:28;;;;;;;11.38;6.00;;;34.40;57.80;;;;;;4953940;28;20055;-82
2022/07/22 11:51:05;;;;;;;12.50;5.68;;;34.60;57.30;;;;;;4971109;28;20125;-83
2022/07/22 11:53:40;;;;;;;12.50;4.72;;;34.60;56.80;;;;;;4955197;28;20467;-84
2022/07/22 11:56:12;;;;;;;;;;;34.60;56.20;;;;;;4966315;28;20066;-81
2022/07/22 11:58:55;;;;;;;10.68;4.20;;;34.90;57.30;;;;;;4935734;29;19999;-82
2022/07/22 12:01:25;;;;;;;9.07;5.25;;;35.10;57.20;;;;;;4953088;29;20063;-82
2022/07/22 12:04:00;;;;;;;12.95;5.75;;;35.10;55.80;;;;;;4936796;29;20669;-81
2022/07/22 12:06:36;;;;;;;11.32;5.45;;;34.90;55.60;;;;;;4952869;29;20050;-82
2022/07/22 12:09:16;;;;;;;16.15;5.93;;;34.70;55.30;;;;;;4929278;28;20402;-81
2022/07/22 12:11:45;;;;;;;14.82;5.80;;;34.90;55.60;;;;;;4958993;28;20491;-81
2022/07/22 12:14:24;;;;;;;12.60;6.25;;;34.80;54.60;;;;;;4959922;28;20117;-82
2022/07/22 12:17:09;;;;;;;16.05;5.85;;;34.80;54.90;;;;;;4958978;28;20054;-79
2022/07/22 12:19:39;;;;;;;13.95;6.13;;;34.60;54.70;;;;;;4959097;28;20054;-81
2022/07/22 12:22:09;;;;;;;12.38;5.57;;;34.90;55.40;;;;;;4959079;28;20043;-80
2022/07/22 12:24:45;;;;;;;15.02;8.15;;;34.90;55.60;;;;;;4963638;28;20043;-79
2022/07/22 12:27:16;;;;;;;10.60;5.78;;;35.30;54.50;;;;;;4936057;29;20078;-82
2022/07/22 12:29:48;;;;;;;11.75;6.68;;;35.50;54.90;;;;;;4948558;29;20051;-81
2022/07/22 12:32:15;;;;;;;12.07;5.55;;;35.60;54.80;;;;;;4924156;29;20143;-80
2022/07/22 12:34:57;;;;;;;9.10;4.95;;;35.50;54.50;;;;;;4924031;29;20137;-80
2022/07/22 12:37:34;;;;;;;11.40;4.78;;;35.80;56.00;;;;;;4939531;29;20043;-80
2022/07/22 12:40:04;;;;;;;14.50;4.90;;;36.00;55.80;;;;;;4971211;28;20057;-80
2022/07/22 12:42:33;;;;;;;10.15;5.82;;;36.00;54.70;;;;;;4975948;28;20050;-81
2022/07/22 12:45:16;;;;;;;15.05;7.28;;;36.00;54.50;;;;;;4975413;28;20470;-82
2022/07/22 12:47:58;;;;;;;8.55;4.55;;;36.30;55.40;;;;;;4958545;28;20078;-81
2022/07/22 12:50:39;;;;;;;7.43;4.57;;;36.50;53.00;;;;;;4942345;28;20043;-79
2022/07/22 12:53:09;;;;;;;10.15;4.75;;;35.60;54.20;;;;;;4942429;28;20418;-79
2022/07/22 12:55:51;;;;;;;10.70;4.38;;;35.50;53.70;;;;;;4923173;28;20122;-80
2022/07/22 12:58:19;;;;;;;8.63;4.20;;;35.50;53.70;;;;;;4919948;29;20047;-78
2022/07/22 13:00:51;;;;;;;9.77;4.67;;;35.70;54.40;;;;;;4919995;29;20048;-81